Time,TemperatureF,DewpointF,PressureIn,WindDirection,WindDirectionDegrees,WindSpeedMPH,WindSpeedGustMPH,Humidity,HourlyPrecipIn,Conditions,Clouds,dailyrainin,SoftwareType,DateUTC
2013-06-11 00:02:00,67.4,36.0,29.85,West,267,10.0,16.0,32,0.00,,,0.00,weatherlink.com 1.10,2013-06-11 07:02:00,
2013-06-11 00:17:00,67.1,38.0,29.85,WSW,248,11.0,17.0,35,0.00,,,0.00,weatherlink.com 1.10,2013-06-11 07:17:00,
2013-06-11 00:32:00,67.7,37.0,29.84,West,281,10.0,16.0,32,0.00,,,0.00,weatherlink.com 1.10,2013-06-11 07:32:00,
2013-06-11 00:47:00,66.8,40.0,29.84,NNE,25,0.0,9.0,37,0.00,,,0.00,weatherlink.com 1.10,2013-06-11 07:47:00,
2013-06-11 01:02:00,67.4,33.0,29.84,WSW,241,2.0,13.0,28,0.00,,,0.00,weatherlink.com 1.10,2013-06-11 08:02:00,
2013-06-11 01:17:00,66.7,37.0,29.84,West,271,8.0,12.0,33,0.00,,,0.00,weatherlink.com 1.10,2013-06-11 08:17:00,
2013-06-11 01:32:00,66.5,35.0,29.83,WNW,297,1.0,13.0,31,0.00,,,0.00,weatherlink.com 1.10,2013-06-11 08:32:00,
2013-06-11 01:47:00,65.0,35.0,29.83,West,276,0.0,5.0,33,0.00,,,0.00,weatherlink.com 1.10,2013-06-11 08:47:00,
2013-06-11 02:02:00,67.5,35.0,29.83,WSW,248,9.0,15.0,30,0.00,,,0.00,weatherlink.com 1.10,2013-06-11 09:02:00,
2013-06-11 02:17:00,66.9,34.0,29.82,West,263,6.0,13.0,30,0.00,,,0.00,weatherlink.com 1.10,2013-06-11 09:17:00,
2013-06-11 02:32:00,66.5,37.0,29.83,ESE,113,1.0,13.0,34,0.00,,,0.00,weatherlink.com 1.10,2013-06-11 09:32:00,
2013-06-11 02:47:00,67.2,34.0,29.82,WSW,256,13.0,14.0,29,0.00,,,0.00,weatherlink.com 1.10,2013-06-11 09:47:00,
2013-06-11 03:02:00,67.7,35.0,29.82,West,265,6.0,13.0,30,0.00,,,0.00,weatherlink.com 1.10,2013-06-11 10:02:00,
2013-06-11 03:17:00,67.9,37.0,29.82,West,265,12.0,18.0,32,0.00,,,0.00,weatherlink.com 1.10,2013-06-11 10:17:00,
2013-06-11 03:32:00,68.0,38.0,29.83,WSW,239,14.0,20.0,33,0.00,,,0.00,weatherlink.com 1.10,2013-06-11 10:32:00,
2013-06-11 03:47:00,66.1,38.0,29.83,NE,44,0.0,9.0,36,0.00,,,0.00,weatherlink.com 1.10,2013-06-11 10:47:00,
2013-06-11 04:02:00,68.1,38.0,29.82,SW,226,10.0,16.0,33,0.00,,,0.00,weatherlink.com 1.10,2013-06-11 11:02:00,
2013-06-11 04:17:00,65.1,40.0,29.82,West,265,5.0,5.0,40,0.00,,,0.00,weatherlink.com 1.10,2013-06-11 11:17:00,
2013-06-11 04:32:00,66.0,39.0,29.82,SE,144,0.0,6.0,37,0.00,,,0.00,weatherlink.com 1.10,2013-06-11 11:32:00,
2013-06-11 04:47:00,64.0,38.0,29.82,East,96,0.0,2.0,39,0.00,,,0.00,weatherlink.com 1.10,2013-06-11 11:47:00,
2013-06-11 05:03:00,63.5,37.0,29.83,ESE,113,0.0,3.0,38,0.00,,,0.00,weatherlink.com 1.10,2013-06-11 12:03:00,
2013-06-11 05:18:00,64.3,37.0,29.83,East,79,0.0,2.0,36,0.00,,,0.00,weatherlink.com 1.10,2013-06-11 12:18:00,
2013-06-11 05:33:00,64.8,37.0,29.83,East,83,0.0,2.0,36,0.00,,,0.00,weatherlink.com 1.10,2013-06-11 12:33:00,
2013-06-11 05:48:00,65.1,35.0,29.83,SSW,193,0.0,4.0,33,0.00,,,0.00,weatherlink.com 1.10,2013-06-11 12:48:00,
2013-06-11 06:03:00,66.4,36.0,29.83,ESE,108,2.0,9.0,32,0.00,,,0.00,weatherlink.com 1.10,2013-06-11 13:03:00,
2013-06-11 06:18:00,68.8,35.0,29.83,ENE,70,1.0,7.0,29,0.00,,,0.00,weatherlink.com 1.10,2013-06-11 13:18:00,
2013-06-11 06:33:00,69.4,37.0,29.84,SE,127,0.0,4.0,31,0.00,,,0.00,weatherlink.com 1.10,2013-06-11 13:33:00,
2013-06-11 06:48:00,71.1,33.0,29.84,WSW,250,8.0,11.0,25,0.00,,,0.00,weatherlink.com 1.10,2013-06-11 13:48:00,
2013-06-11 07:03:00,73.1,34.0,29.84,West,261,8.0,16.0,24,0.00,,,0.00,weatherlink.com 1.10,2013-06-11 14:03:00,
2013-06-11 07:18:00,72.8,34.0,29.85,WSW,257,9.0,13.0,24,0.00,,,0.00,weatherlink.com 1.10,2013-06-11 14:18:00,
2013-06-11 07:33:00,73.7,34.0,29.85,WSW,257,8.0,16.0,23,0.00,,,0.00,weatherlink.com 1.10,2013-06-11 14:33:00,
2013-06-11 07:48:00,74.0,35.0,29.85,WSW,254,10.0,14.0,24,0.00,,,0.00,weatherlink.com 1.10,2013-06-11 14:48:00,
2013-06-11 08:03:00,74.7,36.0,29.86,West,265,10.0,17.0,24,0.00,,,0.00,weatherlink.com 1.10,2013-06-11 15:03:00,
2013-06-11 08:18:00,76.1,32.0,29.86,WSW,258,9.0,16.0,20,0.00,,,0.00,weatherlink.com 1.10,2013-06-11 15:18:00,
2013-06-11 08:33:00,78.5,34.0,29.86,WSW,258,5.0,10.0,20,0.00,,,0.00,weatherlink.com 1.10,2013-06-11 15:33:00,
2013-06-11 08:48:00,78.8,33.0,29.86,WNW,285,6.0,10.0,19,0.00,,,0.00,weatherlink.com 1.10,2013-06-11 15:48:00,
2013-06-11 09:03:00,79.1,32.0,29.86,West,271,5.0,13.0,18,0.00,,,0.00,weatherlink.com 1.10,2013-06-11 16:03:00,
2013-06-11 09:18:00,80.3,33.0,29.85,West,275,4.0,14.0,18,0.00,,,0.00,weatherlink.com 1.10,2013-06-11 16:18:00,
2013-06-11 09:33:00,81.3,34.0,29.85,West,273,6.0,12.0,18,0.00,,,0.00,weatherlink.com 1.10,2013-06-11 16:33:00,
2013-06-11 09:48:00,81.4,33.0,29.85,NW,304,6.0,14.0,17,0.00,,,0.00,weatherlink.com 1.10,2013-06-11 16:48:00,
2013-06-11 10:03:00,82.7,36.0,29.85,WSW,252,7.0,15.0,19,0.00,,,0.00,weatherlink.com 1.10,2013-06-11 17:03:00,
2013-06-11 10:18:00,82.5,38.0,29.85,West,276,8.0,17.0,20,0.00,,,0.00,weatherlink.com 1.10,2013-06-11 17:18:00,
2013-06-11 10:33:00,83.1,39.0,29.85,WSW,242,5.0,13.0,21,0.00,,,0.00,weatherlink.com 1.10,2013-06-11 17:33:00,
2013-06-11 10:48:00,83.7,39.0,29.84,West,273,5.0,17.0,20,0.00,,,0.00,weatherlink.com 1.10,2013-06-11 17:48:00,
2013-06-11 11:04:00,84.0,39.0,29.85,West,264,9.0,13.0,20,0.00,,,0.00,weatherlink.com 1.10,2013-06-11 18:04:00,
2013-06-11 11:18:00,84.4,40.0,29.85,West,266,2.0,12.0,21,0.00,,,0.00,weatherlink.com 1.10,2013-06-11 18:18:00,
2013-06-11 11:33:00,84.8,37.0,29.85,WNW,288,9.0,14.0,18,0.00,,,0.00,weatherlink.com 1.10,2013-06-11 18:33:00,
2013-06-11 11:48:00,86.2,38.0,29.84,SE,146,2.0,12.0,18,0.00,,,0.00,weatherlink.com 1.10,2013-06-11 18:48:00,
2013-06-11 12:03:00,87.7,38.0,29.84,WNW,283,3.0,14.0,17,0.00,,,0.00,weatherlink.com 1.10,2013-06-11 19:03:00,
2013-06-11 12:18:00,87.2,36.0,29.83,West,274,5.0,13.0,16,0.00,,,0.00,weatherlink.com 1.10,2013-06-11 19:18:00,
2013-06-11 12:33:00,86.6,32.0,29.82,West,268,14.0,20.0,14,0.00,,,0.00,weatherlink.com 1.10,2013-06-11 19:33:00,
2013-06-11 12:48:00,87.4,33.0,29.82,West,276,4.0,17.0,14,0.00,,,0.00,weatherlink.com 1.10,2013-06-11 19:48:00,
2013-06-11 13:03:00,86.4,32.0,29.82,SW,233,14.0,19.0,14,0.00,,,0.00,weatherlink.com 1.10,2013-06-11 20:03:00,
2013-06-11 13:18:00,87.6,29.0,29.82,WSW,243,15.0,20.0,12,0.00,,,0.00,weatherlink.com 1.10,2013-06-11 20:18:00,
2013-06-11 13:34:00,86.8,32.0,29.82,WNW,286,14.0,23.0,14,0.00,,,0.00,weatherlink.com 1.10,2013-06-11 20:34:00,
2013-06-11 13:49:00,86.1,36.0,29.82,WSW,250,9.0,21.0,17,0.00,,,0.00,weatherlink.com 1.10,2013-06-11 20:49:00,
2013-06-11 14:04:00,85.1,40.0,29.82,NNW,340,5.0,20.0,20,0.00,,,0.00,weatherlink.com 1.10,2013-06-11 21:04:00,
2013-06-11 14:19:00,84.0,39.0,29.82,West,264,7.0,20.0,20,0.00,,,0.00,weatherlink.com 1.10,2013-06-11 21:19:00,
2013-06-11 14:34:00,86.2,36.0,29.82,WSW,254,9.0,19.0,17,0.00,,,0.00,weatherlink.com 1.10,2013-06-11 21:34:00,
2013-06-11 14:49:00,87.7,35.0,29.81,West,268,7.0,13.0,15,0.00,,,0.00,weatherlink.com 1.10,2013-06-11 21:49:00,
2013-06-11 15:04:00,86.9,30.0,29.81,West,274,7.0,17.0,13,0.00,,,0.00,weatherlink.com 1.10,2013-06-11 22:04:00,
2013-06-11 15:19:00,87.0,32.0,29.80,West,279,11.0,16.0,14,0.00,,,0.00,weatherlink.com 1.10,2013-06-11 22:19:00,
2013-06-11 15:34:00,86.2,38.0,29.80,West,279,3.0,15.0,18,0.00,,,0.00,weatherlink.com 1.10,2013-06-11 22:34:00,
2013-06-11 15:49:00,86.5,35.0,29.80,WSW,247,9.0,15.0,16,0.00,,,0.00,weatherlink.com 1.10,2013-06-11 22:49:00,
2013-06-11 16:04:00,85.8,42.0,29.79,WSW,246,3.0,14.0,21,0.00,,,0.00,weatherlink.com 1.10,2013-06-11 23:04:00,
2013-06-11 16:19:00,85.0,41.0,29.79,WSW,247,6.0,14.0,21,0.00,,,0.00,weatherlink.com 1.10,2013-06-11 23:19:00,
2013-06-11 16:34:00,85.0,43.0,29.79,SW,236,6.0,15.0,23,0.00,,,0.00,weatherlink.com 1.10,2013-06-11 23:34:00,
2013-06-11 16:50:00,83.9,43.0,29.78,WSW,257,12.0,16.0,24,0.00,,,0.00,weatherlink.com 1.10,2013-06-11 23:50:00,
2013-06-11 17:05:00,82.1,44.0,29.78,West,274,9.0,22.0,26,0.00,,,0.00,weatherlink.com 1.10,2013-06-12 00:05:00,
2013-06-11 17:19:00,81.3,41.0,29.77,West,271,14.0,20.0,24,0.00,,,0.00,weatherlink.com 1.10,2013-06-12 00:19:00,
2013-06-11 17:34:00,81.2,42.0,29.77,WSW,255,11.0,21.0,25,0.00,,,0.00,weatherlink.com 1.10,2013-06-12 00:34:00,
2013-06-11 17:49:00,80.5,44.0,29.77,WSW,252,10.0,21.0,28,0.00,,,0.00,weatherlink.com 1.10,2013-06-12 00:49:00,
2013-06-11 18:04:00,79.8,44.0,29.76,West,277,13.0,23.0,28,0.00,,,0.00,weatherlink.com 1.10,2013-06-12 01:04:00,
2013-06-11 18:19:00,79.0,45.0,29.76,West,259,17.0,24.0,30,0.00,,,0.00,weatherlink.com 1.10,2013-06-12 01:19:00,
2013-06-11 18:34:00,78.8,46.0,29.76,WSW,250,20.0,26.0,31,0.00,,,0.00,weatherlink.com 1.10,2013-06-12 01:34:00,
2013-06-11 18:49:00,78.2,44.0,29.76,West,272,17.0,28.0,30,0.00,,,0.00,weatherlink.com 1.10,2013-06-12 01:49:00,
2013-06-11 19:04:00,76.9,44.0,29.76,West,266,20.0,30.0,31,0.00,,,0.00,weatherlink.com 1.10,2013-06-12 02:04:00,
2013-06-11 19:19:00,75.8,43.0,29.76,West,264,17.0,29.0,31,0.00,,,0.00,weatherlink.com 1.10,2013-06-12 02:19:00,
2013-06-11 19:34:00,75.8,43.0,29.76,West,271,17.0,28.0,31,0.00,,,0.00,weatherlink.com 1.10,2013-06-12 02:34:00,
2013-06-11 19:49:00,74.2,45.0,29.76,WSW,257,16.0,27.0,35,0.00,,,0.00,weatherlink.com 1.10,2013-06-12 02:49:00,
2013-06-11 20:04:00,72.2,45.0,29.76,WSW,245,17.0,29.0,38,0.00,,,0.00,weatherlink.com 1.10,2013-06-12 03:04:00,
2013-06-11 20:19:00,71.8,44.0,29.76,West,269,19.0,26.0,37,0.00,,,0.00,weatherlink.com 1.10,2013-06-12 03:19:00,
2013-06-11 20:34:00,72.3,43.0,29.76,WSW,253,17.0,27.0,35,0.00,,,0.00,weatherlink.com 1.10,2013-06-12 03:34:00,
2013-06-11 20:49:00,72.6,41.0,29.77,WSW,255,21.0,25.0,32,0.00,,,0.00,weatherlink.com 1.10,2013-06-12 03:49:00,
2013-06-11 21:04:00,71.8,43.0,29.77,West,264,12.0,26.0,36,0.00,,,0.00,weatherlink.com 1.10,2013-06-12 04:04:00,
2013-06-11 21:19:00,71.9,43.0,29.77,WSW,243,13.0,23.0,35,0.00,,,0.00,weatherlink.com 1.10,2013-06-12 04:19:00,
2013-06-11 21:34:00,72.4,42.0,29.78,West,270,13.0,25.0,33,0.00,,,0.00,weatherlink.com 1.10,2013-06-12 04:34:00,
2013-06-11 21:49:00,72.9,38.0,29.79,SW,220,15.0,25.0,28,0.00,,,0.00,weatherlink.com 1.10,2013-06-12 04:49:00,
2013-06-11 22:04:00,73.7,32.0,29.79,West,266,19.0,23.0,22,0.00,,,0.00,weatherlink.com 1.10,2013-06-12 05:04:00,
2013-06-11 22:19:00,74.3,28.0,29.79,WSW,237,16.0,20.0,18,0.00,,,0.00,weatherlink.com 1.10,2013-06-12 05:19:00,
2013-06-11 22:34:00,73.9,29.0,29.79,WSW,250,13.0,19.0,19,0.00,,,0.00,weatherlink.com 1.10,2013-06-12 05:34:00,
2013-06-11 22:49:00,74.0,26.0,29.79,WSW,245,10.0,20.0,17,0.00,,,0.00,weatherlink.com 1.10,2013-06-12 05:49:00,
2013-06-11 23:04:00,73.7,30.0,29.79,WSW,249,18.0,22.0,20,0.00,,,0.00,weatherlink.com 1.10,2013-06-12 06:04:00,
2013-06-11 23:19:00,74.3,27.0,29.79,WSW,254,17.0,23.0,17,0.00,,,0.00,weatherlink.com 1.10,2013-06-12 06:19:00,
2013-06-11 23:34:00,74.9,24.0,29.79,WSW,257,9.0,20.0,15,0.00,,,0.00,weatherlink.com 1.10,2013-06-12 06:34:00,
2013-06-11 23:49:00,74.8,24.0,29.80,West,259,11.0,18.0,15,0.00,,,0.00,weatherlink.com 1.10,2013-06-12 06:49:00,